Anastasia Island, Florida
Current Conditions -  °F | °C
As of 8:58 AM on Thursday 23 Oct 2014 (Local Time) from KSGJ Reporting Station
Few Clouds Few Clouds  
Wind Chill: 64°   Ceiling: Unl
Heat Index: 64°   Visibility: 10mi
Dew Point: 55°   Wind: 7mph
Humidity: 72%   Direction: 320°NW
Pressure: 30.05"   Gusts: NA
Location:  29.8475°N, 81.2787°W
Report Text: KSGJ 231258Z 32006KT 10SM FEW042 18/13 A3005 RMK AO2 SLP174 T01780128
Loading
Personal Weather Stations






























Interactive Weather Map
Tropical Storm Tracking
New forecast layout! Learn more

10-Day Weather Forecast

Advertisements
Track Severe Weather on mobile